Time;durP1;ratioP1;P1;durP2;ratioP2;P2;SDS_P1;SDS_P2;PMS_P1;PMS_P2;Temp;Humidity;BMP_temperature;BMP_pressure;BME280_temperature;BME280_humidity;BME280_pressure;Samples;Min_cycle;Max_cycle;Signal;HPM_P1;HPM_P2
2022/06/19 00:01:37;;;;;;;15.60;3.00;;;19.40;99.90;;;;;;5075822;28;20475;-72
2022/06/19 00:04:05;;;;;;;16.42;2.88;;;19.40;99.90;;;;;;5057489;28;20028;-71
2022/06/19 00:06:31;;;;;;;16.70;3.08;;;19.30;99.90;;;;;;5075136;28;20032;-72
2022/06/19 00:08:56;;;;;;;14.35;2.78;;;19.20;99.90;;;;;;5075552;28;20035;-72
2022/06/19 00:11:22;;;;;;;15.82;4.00;;;19.30;99.90;;;;;;5073505;28;20029;-71
2022/06/19 00:13:49;;;;;;;16.63;2.95;;;19.20;99.90;;;;;;5075406;28;20350;-72
2022/06/19 00:16:15;;;;;;;15.05;2.88;;;19.30;99.90;;;;;;5075251;28;20051;-72
2022/06/19 00:18:42;;;;;;;11.48;3.15;;;19.30;99.90;;;;;;5075423;28;20162;-71
2022/06/19 00:21:09;;;;;;;14.15;2.70;;;19.30;99.90;;;;;;5075086;28;20040;-72
2022/06/19 00:23:36;;;;;;;15.18;3.15;;;19.10;99.90;;;;;;5075318;28;20013;-71
2022/06/19 00:26:02;;;;;;;15.40;2.70;;;19.20;99.90;;;;;;5075203;28;20040;-72
2022/06/19 00:28:28;;;;;;;9.30;3.40;;;19.00;99.90;;;;;;5075085;28;20104;-71
2022/06/19 00:30:54;;;;;;;12.13;2.38;;;19.00;99.90;;;;;;5057215;28;20070;-71
2022/06/19 00:33:20;;;;;;;15.27;2.85;;;19.00;99.90;;;;;;5075094;28;20029;-71
2022/06/19 00:35:46;;;;;;;10.50;2.50;;;18.70;99.90;;;;;;5074453;28;20082;-71
2022/06/19 00:38:12;;;;;;;16.35;3.05;;;18.40;99.90;;;;;;5075043;28;20119;-71
2022/06/19 00:40:39;;;;;;;27.08;3.58;;;18.20;99.90;;;;;;5074888;28;20037;-71
2022/06/19 00:43:05;;;;;;;14.25;3.10;;;18.30;99.90;;;;;;5075060;28;20028;-71
2022/06/19 00:45:39;;;;;;;26.30;3.60;;;18.20;99.90;;;;;;5074625;28;20431;-71
2022/06/19 00:48:35;;;;;;;10.80;2.55;;;18.10;99.90;;;;;;5065097;28;20032;-72
2022/06/19 00:51:05;;;;;;;12.60;2.17;;;18.10;99.90;;;;;;5074738;28;20059;-71
2022/06/19 00:53:57;;;;;;;17.00;2.88;;;18.00;99.90;;;;;;5074860;28;20372;-71
2022/06/19 00:56:25;;;;;;;24.23;3.63;;;17.90;99.90;;;;;;5058016;28;20397;-71
2022/06/19 00:58:52;;;;;;;23.70;2.88;;;18.00;99.90;;;;;;5074655;28;20449;-72
2022/06/19 01:01:21;;;;;;;23.83;2.92;;;18.00;99.90;;;;;;5056433;28;20036;-71
2022/06/19 01:04:04;;;;;;;21.70;2.67;;;18.20;99.90;;;;;;5074338;28;20036;-71
2022/06/19 01:06:31;;;;;;;15.23;2.13;;;18.20;99.90;;;;;;5056454;28;20028;-71
2022/06/19 01:08:58;;;;;;;20.92;3.33;;;18.00;99.90;;;;;;5074306;28;20385;-71
2022/06/19 01:11:26;;;;;;;22.08;3.40;;;17.80;99.90;;;;;;5074269;28;20035;-71
2022/06/19 01:13:52;;;;;;;31.20;2.75;;;17.80;99.90;;;;;;5074528;28;20043;-71
2022/06/19 01:16:19;;;;;;;21.88;2.85;;;18.00;99.90;;;;;;5074065;28;20029;-71
2022/06/19 01:18:45;;;;;;;20.92;3.10;;;18.20;99.90;;;;;;5073903;28;20032;-71
2022/06/19 01:21:20;;;;;;;17.85;2.90;;;18.30;99.90;;;;;;5074258;28;20020;-71
2022/06/19 01:24:07;;;;;;;12.00;2.25;;;18.20;99.90;;;;;;5074333;28;20024;-71
2022/06/19 01:26:39;;;;;;;24.92;3.13;;;18.20;99.90;;;;;;5073721;28;20024;-71
2022/06/19 01:29:07;;;;;;;24.40;3.00;;;18.30;99.90;;;;;;5074137;28;20024;-71
2022/06/19 01:31:42;;;;;;;25.35;3.72;;;18.50;99.90;;;;;;5073417;28;20477;-71
2022/06/19 01:34:27;;;;;;;19.88;2.90;;;18.60;99.90;;;;;;5074045;28;20035;-71
2022/06/19 01:36:58;;;;;;;29.42;3.53;;;18.40;99.90;;;;;;5073760;28;20090;-71
2022/06/19 01:39:25;;;;;;;18.88;2.17;;;18.10;99.90;;;;;;5073708;28;20030;-71
2022/06/19 01:41:51;;;;;;;12.20;2.22;;;18.10;99.90;;;;;;5073711;28;20020;-71
2022/06/19 01:44:17;;;;;;;16.40;2.28;;;18.10;99.90;;;;;;5073943;28;20540;-71
2022/06/19 01:46:43;;;;;;;20.83;2.55;;;18.30;99.90;;;;;;5067315;28;20100;-71
2022/06/19 01:49:09;;;;;;;23.98;2.95;;;18.10;99.90;;;;;;5073063;28;20033;-71
2022/06/19 01:51:34;;;;;;;7.60;2.22;;;18.10;99.90;;;;;;5073799;28;20473;-71
2022/06/19 01:54:11;;;;;;;13.82;2.65;;;17.90;99.90;;;;;;5073419;28;20025;-71
2022/06/19 01:56:37;;;;;;;13.27;1.80;;;17.80;99.90;;;;;;5073607;28;20392;-71
2022/06/19 01:59:06;;;;;;;13.40;2.03;;;17.80;99.90;;;;;;5073096;28;20073;-71
2022/06/19 02:01:34;;;;;;;25.23;2.72;;;17.90;99.90;;;;;;5073037;28;20020;-71
2022/06/19 02:04:00;;;;;;;10.63;2.15;;;18.00;99.90;;;;;;5072907;28;20020;-71
2022/06/19 02:06:41;;;;;;;11.98;2.42;;;18.10;99.90;;;;;;5073299;28;20051;-71
2022/06/19 02:09:08;;;;;;;7.53;2.13;;;18.00;99.90;;;;;;5072476;28;20139;-70
2022/06/19 02:11:35;;;;;;;17.77;2.03;;;17.90;99.90;;;;;;5072799;28;20029;-69
2022/06/19 02:14:04;;;;;;;10.05;2.15;;;17.80;99.90;;;;;;5072400;28;20108;-71
2022/06/19 02:16:34;;;;;;;14.50;3.00;;;17.70;99.90;;;;;;5072123;28;20032;-71
2022/06/19 02:18:59;;;;;;;11.40;2.10;;;17.60;99.90;;;;;;5072023;28;20024;-71
2022/06/19 02:21:37;;;;;;;24.67;2.22;;;17.60;99.90;;;;;;5072328;28;20024;-71
2022/06/19 02:24:04;;;;;;;19.98;2.58;;;17.60;99.90;;;;;;5072446;28;20028;-71
2022/06/19 02:26:31;;;;;;;14.75;2.10;;;17.80;99.90;;;;;;5072140;28;20119;-71
2022/06/19 02:28:57;;;;;;;12.38;2.25;;;17.70;99.90;;;;;;5072162;28;20059;-71
2022/06/19 02:31:23;;;;;;;15.48;2.03;;;17.80;99.90;;;;;;5071954;28;20040;-71
2022/06/19 02:33:55;;;;;;;9.85;2.28;;;17.90;99.90;;;;;;5072231;28;20101;-71
2022/06/19 02:37:04;;;;;;;10.65;1.85;;;17.90;99.90;;;;;;5072056;28;20109;-71
2022/06/19 02:40:08;;;;;;;8.80;1.70;;;17.70;99.90;;;;;;5038096;28;20040;-71
2022/06/19 02:42:34;;;;;;;11.13;1.65;;;17.70;99.90;;;;;;5072206;28;20036;-71
2022/06/19 02:45:05;;;;;;;9.48;1.83;;;17.80;99.90;;;;;;5071661;28;20104;-71
2022/06/19 02:47:34;;;;;;;20.03;1.97;;;17.50;99.90;;;;;;5065457;28;20024;-71
2022/06/19 02:50:00;;;;;;;13.52;2.13;;;17.40;99.90;;;;;;5072009;28;20087;-71
2022/06/19 02:52:26;;;;;;;16.38;2.15;;;17.50;99.90;;;;;;5071770;28;20012;-71
2022/06/19 02:54:53;;;;;;;11.70;1.73;;;17.50;99.90;;;;;;5071790;28;20036;-71
2022/06/19 02:57:19;;;;;;;10.85;1.92;;;17.50;99.50;;;;;;5071742;28;20584;-71
2022/06/19 02:59:45;;;;;;;11.65;2.10;;;17.50;99.20;;;;;;5071521;28;20123;-71
2022/06/19 03:02:12;;;;;;;10.63;2.00;;;17.20;99.10;;;;;;5071954;28;20093;-71
2022/06/19 03:04:44;;;;;;;11.50;2.13;;;17.10;99.00;;;;;;5071648;28;20037;-71
2022/06/19 03:07:10;;;;;;;13.60;2.33;;;17.00;99.50;;;;;;5087427;28;20082;-70
2022/06/19 03:09:36;;;;;;;14.25;1.90;;;17.20;99.90;;;;;;5030495;28;1186848;-71
2022/06/19 03:12:02;;;;;;;14.18;2.17;;;17.20;99.10;;;;;;5072542;28;20033;-70
2022/06/19 03:14:28;;;;;;;8.93;1.40;;;17.20;98.50;;;;;;5073313;28;20107;-71
2022/06/19 03:16:53;;;;;;;12.98;1.75;;;17.40;99.20;;;;;;5076685;28;20440;-71
2022/06/19 03:19:19;;;;;;;20.70;1.23;;;17.30;97.90;;;;;;5076423;28;20055;-70
2022/06/19 03:21:45;;;;;;;22.33;3.05;;;17.40;97.20;;;;;;5076403;28;20029;-71
2022/06/19 03:24:11;;;;;;;20.80;1.70;;;17.50;96.80;;;;;;5076521;28;20127;-71
2022/06/19 03:26:37;;;;;;;28.98;2.60;;;17.60;97.20;;;;;;5076383;28;20027;-71
2022/06/19 03:29:03;;;;;;;13.93;1.98;;;17.60;97.50;;;;;;5076055;28;20029;-71
2022/06/19 03:31:30;;;;;;;18.42;1.95;;;17.40;97.60;;;;;;5076158;28;20063;-69
2022/06/19 03:33:56;;;;;;;12.30;2.13;;;17.40;97.80;;;;;;5076788;28;20483;-71
2022/06/19 03:36:22;;;;;;;21.60;2.15;;;17.60;97.60;;;;;;5076124;28;20127;-71
2022/06/19 03:38:48;;;;;;;17.00;1.95;;;17.60;97.20;;;;;;5058065;28;20024;-71
2022/06/19 03:41:14;;;;;;;13.68;2.28;;;17.70;97.50;;;;;;5076100;28;20112;-71
2022/06/19 03:43:41;;;;;;;20.95;2.20;;;17.80;97.40;;;;;;5057974;28;20024;-72
2022/06/19 03:46:15;;;;;;;19.17;1.98;;;17.80;97.50;;;;;;5075093;28;20052;-71
2022/06/19 03:48:43;;;;;;;18.10;2.08;;;17.60;98.30;;;;;;5053870;28;20036;-71
2022/06/19 03:51:10;;;;;;;13.75;2.10;;;17.70;98.00;;;;;;5076375;28;20495;-71
2022/06/19 03:53:36;;;;;;;10.65;2.20;;;17.80;98.30;;;;;;5075906;28;20036;-70
2022/06/19 03:56:02;;;;;;;12.85;1.77;;;17.70;98.10;;;;;;5075667;28;20016;-71
2022/06/19 03:58:45;;;;;;;8.90;1.60;;;17.80;97.60;;;;;;5076567;28;20078;-71
2022/06/19 04:01:35;;;;;;;9.50;1.80;;;17.90;97.70;;;;;;5075932;28;20104;-71
2022/06/19 04:04:01;;;;;;;8.60;2.03;;;17.80;98.10;;;;;;5067853;28;20484;-71
2022/06/19 04:06:29;;;;;;;13.52;2.28;;;17.80;97.50;;;;;;5075707;28;20052;-71
2022/06/19 04:08:56;;;;;;;12.90;1.98;;;18.10;97.10;;;;;;5075127;28;20036;-70
2022/06/19 04:11:23;;;;;;;11.90;2.30;;;17.90;98.00;;;;;;5075347;28;20041;-70
2022/06/19 04:13:52;;;;;;;13.98;1.73;;;17.70;98.50;;;;;;5075700;28;20033;-70
2022/06/19 04:16:21;;;;;;;14.77;1.67;;;17.70;98.70;;;;;;5075395;28;20032;-70
2022/06/19 04:18:49;;;;;;;14.85;2.45;;;17.90;98.10;;;;;;5075349;28;20032;-71
2022/06/19 04:21:17;;;;;;;17.85;2.05;;;17.80;97.70;;;;;;5075209;28;20028;-71
2022/06/19 04:23:44;;;;;;;10.00;1.98;;;17.70;97.90;;;;;;5075767;28;20377;-71
2022/06/19 04:26:12;;;;;;;10.20;1.90;;;17.60;98.00;;;;;;5074542;28;20103;-71
2022/06/19 04:28:38;;;;;;;7.32;1.48;;;17.80;97.60;;;;;;5057734;28;20032;-71
2022/06/19 04:31:04;;;;;;;9.93;1.88;;;17.90;97.70;;;;;;5075057;28;20067;-71
2022/06/19 04:33:32;;;;;;;12.15;1.50;;;17.80;98.00;;;;;;5075147;28;20031;-70
2022/06/19 04:35:57;;;;;;;5.95;1.77;;;17.80;97.70;;;;;;5074887;28;20090;-71
2022/06/19 04:38:23;;;;;;;9.55;1.92;;;17.90;97.10;;;;;;5074891;28;20054;-70
2022/06/19 04:40:50;;;;;;;8.20;1.75;;;18.00;97.30;;;;;;5056965;28;20103;-70
2022/06/19 04:43:16;;;;;;;7.70;1.90;;;18.00;97.50;;;;;;5075121;28;20029;-71
2022/06/19 04:45:42;;;;;;;8.57;1.52;;;18.10;98.00;;;;;;5074708;28;20039;-71
2022/06/19 04:48:09;;;;;;;8.85;1.73;;;18.10;97.30;;;;;;5068347;28;20029;-71
2022/06/19 04:50:35;;;;;;;8.13;2.00;;;18.10;97.30;;;;;;5074825;28;20036;-70
2022/06/19 04:53:01;;;;;;;14.45;2.53;;;18.30;96.60;;;;;;5074862;28;20016;-71
2022/06/19 04:55:27;;;;;;;6.82;1.67;;;18.40;96.90;;;;;;5074360;28;20039;-70
2022/06/19 04:57:53;;;;;;;16.58;2.13;;;18.50;97.40;;;;;;5074506;28;20029;-70
2022/06/19 05:00:20;;;;;;;8.73;1.98;;;18.40;97.70;;;;;;5074788;28;20484;-71
2022/06/19 05:02:50;;;;;;;7.90;1.50;;;18.20;98.30;;;;;;5074550;28;20427;-71
2022/06/19 05:05:18;;;;;;;13.93;2.08;;;18.40;97.70;;;;;;5074371;28;20028;-71
2022/06/19 05:07:44;;;;;;;9.07;2.28;;;18.30;98.10;;;;;;5074498;28;20023;-71
2022/06/19 05:10:10;;;;;;;8.48;2.05;;;18.00;98.00;;;;;;5074183;28;20033;-71
2022/06/19 05:12:37;;;;;;;11.05;2.10;;;18.10;98.60;;;;;;5074101;28;20035;-70
2022/06/19 05:15:04;;;;;;;10.98;2.10;;;18.20;99.20;;;;;;5074442;28;20020;-71
2022/06/19 05:17:30;;;;;;;13.55;2.00;;;18.20;98.20;;;;;;5074128;28;20461;-71
2022/06/19 05:19:55;;;;;;;8.98;2.00;;;18.20;98.80;;;;;;5074194;28;20023;-71
2022/06/19 05:22:21;;;;;;;18.75;2.33;;;18.20;98.60;;;;;;5074207;28;20502;-71
2022/06/19 05:24:47;;;;;;;12.00;1.90;;;18.00;99.10;;;;;;5073931;28;20024;-71
2022/06/19 05:27:13;;;;;;;9.48;2.00;;;17.80;99.60;;;;;;5074146;28;20029;-71
2022/06/19 05:29:39;;;;;;;12.98;2.47;;;17.60;99.90;;;;;;5074204;28;20024;-71
2022/06/19 05:32:06;;;;;;;10.35;2.70;;;17.40;99.90;;;;;;5073805;28;20496;-71
2022/06/19 05:34:33;;;;;;;8.75;2.45;;;17.20;99.90;;;;;;5074087;28;20417;-70
2022/06/19 05:36:59;;;;;;;15.60;2.83;;;17.20;99.90;;;;;;5072897;28;20025;-71
2022/06/19 05:39:25;;;;;;;11.48;2.22;;;17.30;99.90;;;;;;5073858;28;20033;-70
2022/06/19 05:41:52;;;;;;;7.45;1.80;;;17.30;99.90;;;;;;5073774;28;20036;-71
2022/06/19 05:44:18;;;;;;;18.92;3.13;;;17.40;99.90;;;;;;5073774;28;20056;-71
2022/06/19 05:46:47;;;;;;;15.68;2.22;;;17.30;99.90;;;;;;5067561;28;20033;-71
2022/06/19 05:49:13;;;;;;;13.23;2.42;;;17.20;99.90;;;;;;5059831;28;20032;-71
2022/06/19 05:51:39;;;;;;;10.93;2.20;;;17.20;99.90;;;;;;5073706;28;20086;-71
2022/06/19 05:54:05;;;;;;;19.73;2.72;;;17.10;99.90;;;;;;5073224;28;20027;-71
2022/06/19 05:56:32;;;;;;;13.75;2.05;;;17.10;99.90;;;;;;5073454;28;20098;-71
2022/06/19 05:58:58;;;;;;;17.25;2.50;;;17.00;99.90;;;;;;5073312;28;20020;-71
2022/06/19 06:01:25;;;;;;;23.42;2.97;;;17.10;99.90;;;;;;5073643;28;20115;-71
2022/06/19 06:03:51;;;;;;;15.15;2.35;;;17.40;99.90;;;;;;5088747;28;20539;-71
2022/06/19 06:06:23;;;;;;;16.80;2.85;;;17.20;99.90;;;;;;5065524;28;20057;-72
2022/06/19 06:08:49;;;;;;;14.68;2.22;;;16.90;99.90;;;;;;5056205;28;20025;-80
2022/06/19 06:11:15;;;;;;;22.42;4.05;;;16.50;99.90;;;;;;5072940;28;20029;-79
2022/06/19 06:13:44;;;;;;;16.80;2.70;;;16.20;99.90;;;;;;5077147;28;20526;-78
2022/06/19 06:16:15;;;;;;;21.83;3.60;;;16.40;99.90;;;;;;5073475;28;20024;-79
2022/06/19 06:18:41;;;;;;;16.75;2.75;;;16.50;99.90;;;;;;5080080;28;20044;-81
2022/06/19 06:21:16;;;;;;;14.95;2.80;;;16.20;99.90;;;;;;5066381;28;20420;-79
2022/06/19 06:23:42;;;;;;;22.13;3.38;;;16.10;99.90;;;;;;5046983;28;20400;-79
2022/06/19 06:26:11;;;;;;;16.58;3.38;;;15.90;99.90;;;;;;5073344;28;20024;-79
2022/06/19 06:28:39;;;;;;;16.23;3.42;;;16.20;99.90;;;;;;5085216;28;20028;-77
2022/06/19 06:31:06;;;;;;;14.20;3.03;;;15.90;99.90;;;;;;5086129;28;20027;-79
2022/06/19 06:33:32;;;;;;;17.25;3.00;;;16.00;99.90;;;;;;5079998;28;20067;-70
2022/06/19 06:35:58;;;;;;;11.10;2.75;;;16.40;99.90;;;;;;5076134;28;20307;-79
2022/06/19 06:38:24;;;;;;;18.65;2.65;;;16.50;99.90;;;;;;5076776;28;20138;-79
2022/06/19 06:40:51;;;;;;;17.52;3.03;;;16.80;99.90;;;;;;5082112;28;20543;-79
2022/06/19 06:43:18;;;;;;;17.27;3.13;;;16.90;99.90;;;;;;5083090;28;20024;-79
2022/06/19 06:45:44;;;;;;;17.80;3.33;;;16.80;99.90;;;;;;5083103;28;20063;-79
2022/06/19 06:48:10;;;;;;;15.23;3.08;;;16.70;99.90;;;;;;5073642;28;20090;-81
2022/06/19 06:50:40;;;;;;;20.08;3.38;;;16.80;99.90;;;;;;5053772;28;20055;-77
2022/06/19 06:53:07;;;;;;;18.98;3.95;;;16.70;99.90;;;;;;5086493;28;20032;-79
2022/06/19 06:55:41;;;;;;;20.20;3.10;;;16.40;99.90;;;;;;5081191;28;20024;-78
2022/06/19 06:58:07;;;;;;;19.27;3.75;;;16.20;99.90;;;;;;5075263;28;20044;-77
2022/06/19 07:00:33;;;;;;;21.67;2.80;;;16.10;99.90;;;;;;5072447;28;20025;-71
2022/06/19 07:02:59;;;;;;;17.60;3.20;;;16.00;99.90;;;;;;5079806;28;20128;-71
2022/06/19 07:05:29;;;;;;;23.48;3.70;;;15.70;99.90;;;;;;5088139;28;20058;-71
2022/06/19 07:07:55;;;;;;;12.98;3.05;;;15.50;99.90;;;;;;5085430;28;20039;-72
2022/06/19 07:10:21;;;;;;;23.25;3.65;;;15.60;99.90;;;;;;5091269;28;20030;-72
2022/06/19 07:12:50;;;;;;;22.38;3.25;;;15.90;99.90;;;;;;5088970;28;20393;-67
2022/06/19 07:15:17;;;;;;;20.67;3.47;;;15.90;99.90;;;;;;5089109;28;20078;-71
2022/06/19 07:17:43;;;;;;;19.02;3.05;;;16.00;99.90;;;;;;5087219;28;20040;-71
2022/06/19 07:20:10;;;;;;;14.02;3.00;;;15.80;99.90;;;;;;5090407;28;20028;-72
2022/06/19 07:22:36;;;;;;;19.88;3.40;;;16.00;99.90;;;;;;5088873;28;20487;-71
2022/06/19 07:25:03;;;;;;;18.90;3.17;;;16.00;99.90;;;;;;5078033;28;20036;-71
2022/06/19 07:27:29;;;;;;;20.52;3.63;;;16.30;99.90;;;;;;5084745;28;20104;-71
2022/06/19 07:29:55;;;;;;;16.20;3.17;;;16.40;99.90;;;;;;5080740;28;20450;-71
2022/06/19 07:32:20;;;;;;;18.10;3.33;;;16.50;99.90;;;;;;5079216;28;20097;-71
2022/06/19 07:34:47;;;;;;;17.77;3.58;;;16.70;99.90;;;;;;5085676;28;20020;-71
2022/06/19 07:37:16;;;;;;;12.77;3.00;;;17.00;99.90;;;;;;5085017;28;20127;-71
2022/06/19 07:39:42;;;;;;;20.63;3.15;;;16.90;99.90;;;;;;5089655;28;20107;-71
2022/06/19 07:42:08;;;;;;;9.48;2.50;;;16.50;99.90;;;;;;5088074;28;20047;-71
2022/06/19 07:44:38;;;;;;;12.48;2.75;;;16.40;99.90;;;;;;5078148;28;20100;-70
2022/06/19 07:50:11;;;;;;;17.33;2.80;;;16.80;99.90;;;;;;5071196;28;20039;-71
2022/06/19 07:52:45;;;;;;;13.32;2.92;;;17.00;99.90;;;;;;5098020;28;20032;-71
2022/06/19 07:55:15;;;;;;;11.20;2.85;;;17.20;99.90;;;;;;5083141;28;20052;-71
2022/06/19 07:57:41;;;;;;;15.48;3.13;;;17.50;99.90;;;;;;5074497;28;20066;-71
2022/06/19 08:00:11;;;;;;;11.02;3.80;;;17.60;99.90;;;;;;5072699;28;20082;-70
2022/06/19 08:02:37;;;;;;;19.13;3.78;;;17.60;99.90;;;;;;5086906;28;20039;-71
2022/06/19 08:05:05;;;;;;;16.45;3.08;;;17.40;99.90;;;;;;5073910;28;20017;-71
2022/06/19 08:07:31;;;;;;;12.93;3.03;;;17.30;99.90;;;;;;5073915;28;20028;-71
2022/06/19 08:09:57;;;;;;;14.95;3.58;;;17.20;99.90;;;;;;5073271;28;20115;-71
2022/06/19 08:12:23;;;;;;;13.98;3.90;;;17.20;99.90;;;;;;5073474;28;20111;-71
2022/06/19 08:14:49;;;;;;;21.83;3.70;;;17.10;99.90;;;;;;5074090;28;20103;-70
2022/06/19 08:17:15;;;;;;;14.77;2.95;;;17.20;99.90;;;;;;5086335;28;20042;-71
2022/06/19 08:19:41;;;;;;;14.18;3.17;;;17.30;99.90;;;;;;5057742;28;20082;-70
2022/06/19 08:22:07;;;;;;;15.77;2.80;;;17.20;99.90;;;;;;5089905;28;20028;-71
2022/06/19 08:24:32;;;;;;;22.05;3.13;;;17.10;99.90;;;;;;5087918;28;20423;-71
2022/06/19 08:27:04;;;;;;;12.00;3.55;;;17.30;99.90;;;;;;5079930;28;20048;-71
2022/06/19 08:29:31;;;;;;;14.38;2.88;;;17.20;99.90;;;;;;5076845;28;20538;-71
2022/06/19 08:31:56;;;;;;;10.05;2.35;;;17.30;99.90;;;;;;5089632;28;20021;-70
2022/06/19 08:34:22;;;;;;;11.75;2.83;;;17.40;99.90;;;;;;5089599;28;20543;-71
2022/06/19 08:36:48;;;;;;;12.90;2.55;;;17.80;99.90;;;;;;5084882;28;20392;-71
2022/06/19 08:39:17;;;;;;;11.60;2.88;;;17.80;99.90;;;;;;5078127;28;20176;-70
2022/06/19 08:41:59;;;;;;;16.65;3.13;;;18.00;99.90;;;;;;5075870;28;20037;-70
2022/06/19 08:44:46;;;;;;;18.40;3.05;;;17.90;99.90;;;;;;5068323;28;20044;-71
2022/06/19 08:47:27;;;;;;;17.88;3.58;;;18.00;99.90;;;;;;5060644;28;20064;-71
2022/06/19 08:50:10;;;;;;;16.42;3.03;;;18.50;99.90;;;;;;5072703;28;20033;-70
2022/06/19 08:52:54;;;;;;;16.63;3.10;;;18.80;99.90;;;;;;5072720;28;20038;-70
2022/06/19 08:55:45;;;;;;;16.77;2.92;;;18.70;99.90;;;;;;5074431;28;20086;-71
2022/06/19 08:59:05;;;;;;;15.93;3.13;;;18.50;99.90;;;;;;5073979;28;20033;-70
2022/06/19 09:01:54;;;;;;;13.63;2.83;;;18.40;99.90;;;;;;5002238;28;20026;-71
2022/06/19 09:07:49;;;;;;;14.93;3.72;;;18.60;99.90;;;;;;5074140;28;20112;-71
2022/06/19 09:10:40;;;;;;;14.48;3.00;;;19.00;99.90;;;;;;5074494;28;20043;-71
2022/06/19 09:13:43;;;;;;;14.65;3.65;;;19.10;99.90;;;;;;5073124;28;20021;-69
2022/06/19 09:16:22;;;;;;;18.73;3.47;;;18.90;99.90;;;;;;5074571;28;20032;-67
2022/06/19 09:19:26;;;;;;;16.92;3.15;;;18.60;99.90;;;;;;5074589;28;20464;-71
2022/06/19 09:22:02;;;;;;;11.05;2.58;;;18.80;99.90;;;;;;5078970;28;20047;-70
2022/06/19 09:24:38;;;;;;;18.88;3.08;;;19.00;99.90;;;;;;5090147;28;20024;-71
2022/06/19 09:27:04;;;;;;;11.15;3.15;;;19.30;99.90;;;;;;5087614;28;20024;-71
2022/06/19 09:29:53;;;;;;;10.82;2.55;;;19.40;99.90;;;;;;5089724;28;20050;-70
2022/06/19 09:32:32;;;;;;;13.57;2.53;;;19.30;99.90;;;;;;5069856;28;20020;-71
2022/06/19 09:35:04;;;;;;;10.48;2.65;;;19.40;99.90;;;;;;5090198;28;20070;-71
2022/06/19 09:38:01;;;;;;;11.93;3.22;;;19.50;99.90;;;;;;5091265;28;20032;-72
2022/06/19 09:40:34;;;;;;;13.77;2.88;;;19.70;99.90;;;;;;5087939;28;20051;-72
2022/06/19 09:43:10;;;;;;;11.48;2.65;;;19.70;99.90;;;;;;5088638;28;20583;-71
2022/06/19 09:45:56;;;;;;;9.18;2.53;;;19.80;99.90;;;;;;5086035;28;20477;-71
2022/06/19 09:48:54;;;;;;;13.70;2.78;;;19.80;99.90;;;;;;5039630;28;20129;-71
2022/06/19 09:51:29;;;;;;;13.75;2.67;;;19.80;99.90;;;;;;5088571;28;20103;-72
2022/06/19 09:54:14;;;;;;;17.00;3.03;;;20.00;99.90;;;;;;5090101;28;20024;-71
2022/06/19 09:56:57;;;;;;;9.07;3.13;;;20.00;99.90;;;;;;5089571;28;20044;-71
2022/06/19 09:59:46;;;;;;;12.55;2.85;;;20.30;99.90;;;;;;5083906;28;20515;-71
2022/06/19 10:02:42;;;;;;;10.27;2.78;;;20.20;99.90;;;;;;5074588;28;20490;-71
2022/06/19 10:05:39;;;;;;;10.40;2.45;;;20.60;99.90;;;;;;5069607;28;20028;-71
2022/06/19 10:08:16;;;;;;;14.10;2.75;;;20.80;99.90;;;;;;5072075;28;20036;-71
2022/06/19 10:11:01;;;;;;;8.48;2.28;;;21.00;99.90;;;;;;5072792;28;20047;-71
2022/06/19 10:13:48;;;;;;;8.20;2.63;;;21.00;99.90;;;;;;5072667;28;20068;-71
2022/06/19 10:16:47;;;;;;;8.73;2.50;;;21.20;99.90;;;;;;5073062;28;20036;-71
2022/06/19 10:19:26;;;;;;;9.63;2.63;;;21.60;99.90;;;;;;5067123;28;20032;-71
2022/06/19 10:22:14;;;;;;;11.05;3.00;;;21.80;99.90;;;;;;5072334;28;20223;-71
2022/06/19 10:24:39;;;;;;;12.57;2.70;;;21.90;99.90;;;;;;5072194;28;20059;-70
2022/06/19 10:27:11;;;;;;;8.38;2.13;;;21.50;99.90;;;;;;5081701;28;20378;-71
2022/06/19 10:30:11;;;;;;;7.07;2.03;;;21.50;99.90;;;;;;5084161;28;20111;-71
2022/06/19 10:32:36;;;;;;;11.35;2.53;;;21.50;99.90;;;;;;5090491;28;20382;-71
2022/06/19 10:35:05;;;;;;;5.13;1.77;;;21.60;99.90;;;;;;5088494;28;20036;-71
2022/06/19 10:37:52;;;;;;;17.17;3.33;;;21.50;99.90;;;;;;5087227;28;20040;-70
2022/06/19 10:40:53;;;;;;;6.25;1.63;;;22.00;99.90;;;;;;5086907;28;20035;-71
2022/06/19 10:43:43;;;;;;;7.03;1.67;;;22.00;99.90;;;;;;5057718;28;20771;-71
2022/06/19 10:46:12;;;;;;;7.05;2.03;;;21.70;99.90;;;;;;5086324;28;20134;-71
2022/06/19 10:49:15;;;;;;;4.45;1.90;;;22.30;99.90;;;;;;5086868;28;20035;-71
2022/06/19 10:51:52;;;;;;;11.63;2.30;;;22.90;99.90;;;;;;5074242;28;20035;-67
2022/06/19 10:54:40;;;;;;;10.98;2.15;;;22.70;99.90;;;;;;5067474;28;20106;-69
2022/06/19 10:57:17;;;;;;;7.90;2.05;;;22.90;99.90;;;;;;5079860;28;20044;-70
2022/06/19 10:59:43;;;;;;;7.55;1.92;;;23.10;99.90;;;;;;5070987;28;20024;-70
2022/06/19 11:05:20;;;;;;;7.72;2.70;;;22.40;99.90;;;;;;5070046;28;20500;-70
2022/06/19 11:07:45;;;;;;;10.85;2.03;;;21.80;99.90;;;;;;5072458;28;20066;-70
2022/06/19 11:10:31;;;;;;;7.38;1.83;;;22.00;99.90;;;;;;5072338;28;20040;-70
2022/06/19 11:13:00;;;;;;;7.38;2.05;;;22.00;99.90;;;;;;5071931;28;20035;-70
2022/06/19 11:16:00;;;;;;;8.25;2.17;;;22.20;99.90;;;;;;5072452;28;20031;-70
2022/06/19 11:18:27;;;;;;;9.05;1.77;;;22.10;99.90;;;;;;5072454;28;20041;-71
2022/06/19 11:20:59;;;;;;;6.32;2.08;;;21.90;99.90;;;;;;5072451;28;20070;-70
2022/06/19 11:23:34;;;;;;;4.97;1.60;;;21.80;99.90;;;;;;5072563;28;20524;-69
2022/06/19 11:26:12;;;;;;;10.38;2.50;;;21.60;99.90;;;;;;5071988;28;20159;-70
2022/06/19 11:28:43;;;;;;;10.40;2.38;;;21.50;99.90;;;;;;5072369;28;20040;-69
2022/06/19 11:31:15;;;;;;;;;;;21.00;99.90;;;;;;5072818;28;20044;-70
2022/06/19 11:33:42;;;;;;;6.82;1.65;;;20.70;99.90;;;;;;5072258;28;20300;-71
2022/06/19 11:36:22;;;;;;;5.40;1.88;;;20.70;99.90;;;;;;5074371;28;20429;-70
2022/06/19 11:38:50;;;;;;;7.40;2.10;;;20.70;99.90;;;;;;5057993;28;20041;-71
2022/06/19 11:41:18;;;;;;;10.48;2.35;;;20.80;99.90;;;;;;5075960;28;20036;-70
2022/06/19 11:43:44;;;;;;;9.05;1.95;;;20.20;99.90;;;;;;5076101;28;20405;-70
2022/06/19 11:46:17;;;;;;;7.50;2.30;;;19.80;99.90;;;;;;5054162;28;20083;-70
2022/06/19 11:48:43;;;;;;;10.15;2.25;;;19.70;99.90;;;;;;5072050;28;20473;-71
2022/06/19 11:51:23;;;;;;;6.38;1.90;;;20.10;99.90;;;;;;5075871;28;20074;-70
2022/06/19 11:53:53;;;;;;;11.53;2.87;;;20.60;99.90;;;;;;5074745;28;20037;-71
2022/06/19 11:56:34;;;;;;;6.53;2.50;;;20.50;99.90;;;;;;5091242;28;20028;-70
2022/06/19 11:59:02;;;;;;;9.48;2.72;;;20.90;99.90;;;;;;5075789;28;20029;-71
2022/06/19 12:01:43;;;;;;;13.60;3.20;;;21.30;99.90;;;;;;5075742;28;20372;-70
2022/06/19 12:04:30;;;;;;;7.75;2.45;;;20.90;99.90;;;;;;5074354;28;20032;-70
2022/06/19 12:07:01;;;;;;;7.90;2.53;;;20.20;99.90;;;;;;5075650;28;20024;-71
2022/06/19 12:09:38;;;;;;;12.57;3.30;;;19.80;99.90;;;;;;5075229;28;20039;-70
2022/06/19 12:12:12;;;;;;;12.60;3.33;;;19.60;99.90;;;;;;5075509;28;20488;-70
2022/06/19 12:14:48;;;;;;;14.50;3.63;;;19.60;99.90;;;;;;5075277;28;20017;-70
2022/06/19 12:17:18;;;;;;;14.32;4.57;;;19.60;99.90;;;;;;5075151;28;20036;-71
2022/06/19 12:19:54;;;;;;;13.32;4.75;;;19.30;99.90;;;;;;5075304;28;20029;-71
2022/06/19 12:22:44;;;;;;;14.35;4.78;;;19.40;99.90;;;;;;5075341;28;20547;-70
2022/06/19 12:25:28;;;;;;;10.15;4.10;;;19.50;99.90;;;;;;5075066;28;20510;-71
2022/06/19 12:28:17;;;;;;;16.40;3.92;;;19.40;99.90;;;;;;5075224;28;20081;-71
2022/06/19 12:30:56;;;;;;;17.58;4.57;;;19.00;99.90;;;;;;5075260;28;20039;-70
2022/06/19 12:33:25;;;;;;;18.52;5.43;;;18.80;99.90;;;;;;5075082;28;20457;-70
2022/06/19 12:35:51;;;;;;;14.82;6.25;;;18.30;99.90;;;;;;5075078;28;20028;-71
2022/06/19 12:38:20;;;;;;;22.55;6.60;;;18.30;99.90;;;;;;5090432;28;20089;-71
2022/06/19 12:41:09;;;;;;;25.92;6.60;;;18.20;99.90;;;;;;5074707;28;20017;-71
2022/06/19 12:43:50;;;;;;;19.95;6.57;;;18.00;99.90;;;;;;5075002;28;20043;-70
2022/06/19 12:46:22;;;;;;;25.38;7.82;;;17.60;99.90;;;;;;5069524;28;20021;-71
2022/06/19 12:49:00;;;;;;;;;;;17.30;99.90;;;;;;5072029;28;20033;-70
2022/06/19 12:51:36;;;;;;;18.48;7.70;;;17.40;99.90;;;;;;5074747;28;19909;-70
2022/06/19 12:54:13;;;;;;;18.08;6.88;;;17.30;99.90;;;;;;5074524;28;20711;-70
2022/06/19 12:57:27;;;;;;;20.42;6.35;;;17.20;99.90;;;;;;5074696;28;20028;-70
2022/06/19 13:00:02;;;;;;;19.60;5.95;;;17.30;99.90;;;;;;5012652;28;20030;-71
2022/06/19 13:02:40;;;;;;;19.33;8.07;;;17.20;99.90;;;;;;5065769;28;20085;-71
2022/06/19 13:05:33;;;;;;;19.75;6.00;;;17.20;99.90;;;;;;5073374;28;20439;-71
2022/06/19 13:08:08;;;;;;;24.52;6.38;;;17.10;99.90;;;;;;5074021;28;20027;-70
2022/06/19 13:10:59;;;;;;;18.25;6.35;;;17.00;99.90;;;;;;5056640;28;20083;-70
2022/06/19 13:13:49;;;;;;;19.52;6.75;;;17.00;99.90;;;;;;5074432;28;20119;-70